Time;durP1;ratioP1;P1;durP2;ratioP2;P2;SDS_P1;SDS_P2;PMS_P1;PMS_P2;Temp;Humidity;BMP_temperature;BMP_pressure;BME280_temperature;BME280_humidity;BME280_pressure;Samples;Min_cycle;Max_cycle;Signal;HPM_P1;HPM_P2
2023/03/09 04:01:59;;;;;;;129.80;123.13;;;8.90;99.90;;;;;;5198846;23;20476;-74
2023/03/09 04:04:25;;;;;;;27.07;25.80;;;8.90;99.90;;;;;;4913721;29;20266;-75
2023/03/09 04:06:51;;;;;;;24.43;23.20;;;8.90;99.90;;;;;;4913527;29;20171;-75
2023/03/09 04:09:17;;;;;;;42.40;40.37;;;8.90;99.90;;;;;;4914582;29;20198;-75
2023/03/09 04:11:43;;;;;;;44.73;42.50;;;8.80;99.90;;;;;;4917502;28;20552;-75
2023/03/09 04:14:08;;;;;;;35.87;34.07;;;8.80;99.90;;;;;;4938302;28;20239;-74
2023/03/09 04:16:37;;;;;;;21.57;20.60;;;8.80;99.90;;;;;;4914926;29;20191;-75
2023/03/09 04:19:03;;;;;;;23.23;22.23;;;8.80;99.90;;;;;;4913567;29;20207;-75
2023/03/09 04:21:28;;;;;;;19.13;18.23;;;8.80;99.90;;;;;;4915027;29;20205;-75
2023/03/09 04:23:54;;;;;;;14.80;14.00;;;8.90;99.90;;;;;;4915062;29;20270;-75
2023/03/09 04:26:20;;;;;;;6.93;6.63;;;9.00;99.90;;;;;;4913876;29;20183;-75
2023/03/09 04:28:46;;;;;;;5.17;5.03;;;9.10;99.90;;;;;;4912746;29;20187;-74
2023/03/09 04:31:11;;;;;;;7.03;6.73;;;9.10;99.90;;;;;;4914346;29;20271;-75
2023/03/09 04:33:42;;;;;;;9.13;8.63;;;9.20;99.90;;;;;;4913628;29;20218;-74
2023/03/09 04:36:10;;;;;;;9.57;9.00;;;9.20;99.90;;;;;;4914666;29;20282;-75
2023/03/09 04:38:36;;;;;;;7.80;7.27;;;9.10;99.90;;;;;;4912694;29;20262;-75
2023/03/09 04:41:02;;;;;;;9.90;9.37;;;9.10;99.90;;;;;;4914436;29;20214;-75
2023/03/09 04:43:28;;;;;;;7.70;7.37;;;9.00;99.90;;;;;;4914723;29;20238;-75
2023/03/09 04:45:54;;;;;;;7.43;7.07;;;9.00;99.90;;;;;;4914427;29;20258;-74
2023/03/09 04:48:19;;;;;;;7.37;6.70;;;9.00;99.90;;;;;;4914647;29;20183;-75
2023/03/09 04:50:45;;;;;;;7.33;6.83;;;9.10;99.90;;;;;;4917066;29;20199;-75
2023/03/09 04:53:11;;;;;;;6.80;6.30;;;9.00;99.90;;;;;;4917745;29;20183;-75
2023/03/09 04:55:37;;;;;;;7.43;6.83;;;9.10;99.90;;;;;;4918358;29;20211;-74
2023/03/09 04:58:04;;;;;;;6.63;6.03;;;9.10;99.90;;;;;;4918288;29;20666;-75
2023/03/09 05:00:30;;;;;;;8.17;7.67;;;9.10;99.90;;;;;;4916637;29;20216;-74
2023/03/09 05:02:56;;;;;;;18.23;17.03;;;9.20;99.90;;;;;;4918387;29;20222;-74
2023/03/09 05:05:22;;;;;;;41.73;39.53;;;9.20;99.90;;;;;;4919232;29;20187;-74
2023/03/09 05:07:48;;;;;;;102.90;97.40;;;9.30;99.90;;;;;;4917286;29;20623;-75
2023/03/09 05:10:13;;;;;;;12.53;11.30;;;9.30;99.90;;;;;;4917346;29;20201;-74
2023/03/09 05:12:39;;;;;;;8.87;7.97;;;9.30;99.90;;;;;;4916925;29;20270;-73
2023/03/09 05:15:06;;;;;;;19.03;17.60;;;9.30;99.90;;;;;;4917976;29;20210;-74
2023/03/09 05:17:32;;;;;;;24.47;23.23;;;9.40;99.90;;;;;;4917457;29;20231;-69
2023/03/09 05:19:58;;;;;;;58.93;55.30;;;9.40;99.90;;;;;;4917613;29;20670;-70
2023/03/09 05:22:24;;;;;;;35.50;33.50;;;9.40;99.90;;;;;;4918082;29;20203;-69
2023/03/09 05:24:50;;;;;;;20.57;19.23;;;9.40;99.90;;;;;;4918230;29;20175;-70
2023/03/09 05:27:15;;;;;;;14.50;13.03;;;9.40;99.90;;;;;;4916598;29;20183;-69
2023/03/09 05:29:42;;;;;;;10.53;9.83;;;9.40;99.90;;;;;;4915773;29;20687;-70
2023/03/09 05:32:07;;;;;;;12.67;11.67;;;9.40;99.90;;;;;;4917793;29;20467;-70
2023/03/09 05:34:34;;;;;;;5.10;4.60;;;9.40;99.90;;;;;;4918131;29;20187;-71
2023/03/09 05:37:00;;;;;;;7.43;5.80;;;9.40;99.90;;;;;;4916774;29;20183;-71
2023/03/09 05:39:26;;;;;;;6.23;5.13;;;9.40;99.90;;;;;;4916448;29;20217;-71
2023/03/09 05:41:52;;;;;;;11.73;10.50;;;9.40;99.90;;;;;;4917629;29;20199;-71
2023/03/09 05:44:17;;;;;;;26.47;25.00;;;9.40;99.90;;;;;;4908975;29;20196;-70
2023/03/09 05:46:43;;;;;;;27.97;26.10;;;9.40;99.90;;;;;;4902660;29;20549;-70
2023/03/09 05:49:10;;;;;;;25.43;23.90;;;9.40;99.90;;;;;;4898567;29;20195;-70
2023/03/09 05:51:35;;;;;;;32.67;30.53;;;9.50;99.90;;;;;;4911420;29;20214;-70
2023/03/09 05:54:02;;;;;;;18.97;17.67;;;9.50;99.90;;;;;;4917585;29;20191;-70
2023/03/09 05:56:28;;;;;;;15.70;14.33;;;9.50;99.90;;;;;;4917530;29;20666;-70
2023/03/09 05:58:56;;;;;;;11.83;10.87;;;9.50;99.90;;;;;;4916942;29;20211;-70
2023/03/09 06:01:24;;;;;;;6.60;6.10;;;9.60;99.90;;;;;;4915409;29;20211;-70
2023/03/09 06:03:51;;;;;;;5.80;4.70;;;9.60;99.90;;;;;;4916608;29;20179;-70
2023/03/09 06:06:17;;;;;;;7.37;5.07;;;9.60;99.90;;;;;;4917534;29;20187;-71
2023/03/09 06:08:43;;;;;;;8.07;4.83;;;9.70;99.90;;;;;;4928249;29;20211;-71
2023/03/09 06:11:09;;;;;;;5.50;4.77;;;9.60;99.90;;;;;;4938614;29;20215;-72
2023/03/09 06:13:35;;;;;;;5.87;4.20;;;9.50;99.90;;;;;;4920125;29;20564;-71
2023/03/09 06:16:06;;;;;;;6.93;4.80;;;9.40;99.90;;;;;;4917354;29;20277;-71
2023/03/09 06:18:32;;;;;;;7.90;4.67;;;9.40;99.90;;;;;;4915632;29;20202;-73
2023/03/09 06:21:03;;;;;;;8.27;5.53;;;9.40;99.90;;;;;;4916820;29;20199;-69
2023/03/09 06:23:29;;;;;;;12.97;5.73;;;9.40;99.90;;;;;;4916982;29;20191;-69
2023/03/09 06:25:55;;;;;;;9.87;5.83;;;9.50;99.90;;;;;;4916819;29;20194;-69
2023/03/09 06:28:21;;;;;;;6.00;4.47;;;9.60;99.90;;;;;;4916309;29;20294;-69
2023/03/09 06:30:47;;;;;;;7.83;4.70;;;9.60;99.90;;;;;;4916769;29;20204;-69
2023/03/09 06:33:13;;;;;;;8.13;4.70;;;9.70;99.90;;;;;;4916846;29;20758;-69
2023/03/09 06:35:40;;;;;;;5.30;4.80;;;9.80;99.90;;;;;;4916474;29;20269;-69
2023/03/09 06:38:06;;;;;;;12.57;5.20;;;9.90;99.90;;;;;;4915474;29;20186;-69
2023/03/09 06:40:31;;;;;;;17.80;16.37;;;10.00;99.90;;;;;;4916017;29;20219;-77
2023/03/09 06:42:57;;;;;;;27.40;25.43;;;10.10;99.90;;;;;;4915404;29;20194;-71
2023/03/09 06:45:23;;;;;;;30.03;28.13;;;10.10;99.90;;;;;;4914563;29;20186;-71
2023/03/09 06:47:53;;;;;;;23.13;21.47;;;10.20;99.90;;;;;;4916532;29;20186;-71
2023/03/09 06:50:18;;;;;;;10.80;9.80;;;10.20;99.90;;;;;;4897080;29;20660;-71
2023/03/09 06:52:44;;;;;;;10.07;9.33;;;10.20;99.90;;;;;;4904274;29;20288;-71
2023/03/09 06:55:10;;;;;;;10.00;8.70;;;10.30;99.90;;;;;;4934045;29;20178;-71
2023/03/09 06:57:37;;;;;;;8.57;7.77;;;10.40;99.90;;;;;;4934604;29;20193;-71
2023/03/09 07:00:04;;;;;;;10.30;8.17;;;10.40;99.90;;;;;;4935013;29;20210;-71
2023/03/09 07:02:31;;;;;;;11.37;9.80;;;10.50;99.90;;;;;;4935109;29;20217;-71
2023/03/09 07:04:57;;;;;;;9.90;8.90;;;10.50;99.90;;;;;;4934772;29;20651;-71
2023/03/09 07:07:23;;;;;;;11.60;10.40;;;10.40;99.90;;;;;;4935654;29;20178;-70
2023/03/09 07:09:49;;;;;;;13.40;12.07;;;10.40;99.90;;;;;;4934983;29;20730;-71
2023/03/09 07:12:15;;;;;;;13.37;12.33;;;10.40;99.90;;;;;;4934433;29;20214;-72
2023/03/09 07:14:40;;;;;;;15.07;13.70;;;10.40;99.90;;;;;;4935354;29;20237;-72
2023/03/09 07:17:12;;;;;;;15.10;14.00;;;10.50;99.90;;;;;;4935339;29;20557;-72
2023/03/09 07:19:38;;;;;;;15.80;14.50;;;10.50;99.90;;;;;;4934647;29;20218;-72
2023/03/09 07:22:06;;;;;;;14.90;13.47;;;10.60;99.90;;;;;;4935063;29;20568;-72
2023/03/09 07:24:36;;;;;;;11.23;10.30;;;10.50;99.90;;;;;;4934922;29;20191;-71
2023/03/09 07:27:01;;;;;;;17.83;16.33;;;10.50;99.90;;;;;;4934887;29;20175;-72
2023/03/09 07:29:27;;;;;;;15.73;14.43;;;10.50;99.90;;;;;;4933544;29;20185;-72
2023/03/09 07:31:53;;;;;;;15.33;14.17;;;10.70;99.90;;;;;;4934760;29;20203;-72
2023/03/09 07:34:19;;;;;;;12.70;11.77;;;10.80;99.90;;;;;;4934897;29;20676;-72
2023/03/09 07:36:46;;;;;;;10.20;9.50;;;11.10;99.90;;;;;;4933632;29;20182;-72
2023/03/09 07:39:12;;;;;;;11.50;10.57;;;11.20;99.90;;;;;;4934429;29;20213;-72
2023/03/09 07:41:37;;;;;;;8.97;8.43;;;11.30;99.90;;;;;;4934735;29;20206;-72
2023/03/09 07:44:03;;;;;;;5.17;4.30;;;11.40;99.90;;;;;;4934717;29;20267;-72
2023/03/09 07:46:29;;;;;;;5.43;4.83;;;11.60;99.90;;;;;;4934652;29;20183;-72
2023/03/09 07:48:55;;;;;;;6.57;6.17;;;11.70;99.90;;;;;;4934369;29;20329;-71
2023/03/09 07:51:21;;;;;;;7.63;6.93;;;11.60;99.90;;;;;;4933436;29;20221;-72
2023/03/09 07:53:47;;;;;;;7.13;6.43;;;11.50;99.90;;;;;;4934696;29;20186;-71
2023/03/09 07:56:13;;;;;;;6.83;6.20;;;11.60;99.90;;;;;;4922455;29;20213;-71
2023/03/09 07:58:39;;;;;;;14.60;13.57;;;11.90;99.90;;;;;;4898430;29;20241;-71
2023/03/09 08:01:06;;;;;;;10.93;10.10;;;12.30;99.90;;;;;;4896131;29;20270;-71
2023/03/09 08:03:34;;;;;;;11.17;10.27;;;12.30;99.90;;;;;;4912746;29;20191;-72
2023/03/09 08:06:01;;;;;;;13.20;12.23;;;12.20;99.90;;;;;;4915500;29;20258;-72
2023/03/09 08:08:27;;;;;;;10.20;8.97;;;12.20;99.90;;;;;;4919182;29;20211;-71
2023/03/09 08:10:54;;;;;;;6.43;5.57;;;12.10;99.90;;;;;;4926973;29;20225;-71
2023/03/09 08:13:23;;;;;;;6.43;5.77;;;12.10;99.90;;;;;;4915214;29;20587;-70
2023/03/09 08:15:49;;;;;;;7.97;5.57;;;12.20;99.90;;;;;;4915153;29;20249;-71
2023/03/09 08:18:16;;;;;;;7.47;4.80;;;12.30;99.90;;;;;;4915046;29;20195;-70
2023/03/09 08:20:43;;;;;;;6.20;5.60;;;12.50;99.90;;;;;;4914890;29;20223;-72
2023/03/09 08:23:09;;;;;;;5.50;4.97;;;12.90;99.90;;;;;;4914845;29;20205;-71
2023/03/09 08:25:35;;;;;;;11.63;10.53;;;13.30;99.90;;;;;;4914876;29;20190;-72
2023/03/09 08:28:01;;;;;;;12.93;12.13;;;13.40;99.90;;;;;;4914797;29;20201;-71
2023/03/09 08:30:27;;;;;;;13.50;12.50;;;13.50;99.90;;;;;;4914827;29;20277;-72
2023/03/09 08:32:54;;;;;;;7.63;6.93;;;13.60;99.90;;;;;;4917874;29;20247;-74
2023/03/09 08:35:22;;;;;;;7.33;6.47;;;13.70;99.90;;;;;;4917531;29;20199;-72
2023/03/09 08:37:49;;;;;;;13.10;12.17;;;14.20;99.90;;;;;;4915129;29;20242;-72
2023/03/09 08:40:15;;;;;;;20.93;19.73;;;14.90;99.90;;;;;;4914287;29;20217;-72
2023/03/09 08:42:42;;;;;;;37.43;35.40;;;15.10;99.90;;;;;;4914911;29;20654;-72
2023/03/09 08:45:09;;;;;;;42.17;39.87;;;15.20;99.90;;;;;;4915133;29;20187;-71
2023/03/09 08:47:35;;;;;;;48.20;45.60;;;14.80;99.90;;;;;;4914623;29;20183;-72
2023/03/09 08:50:03;;;;;;;25.13;23.50;;;14.20;99.90;;;;;;4914786;29;20183;-71
2023/03/09 08:52:34;;;;;;;17.80;16.50;;;13.70;99.90;;;;;;4915247;29;20211;-71
2023/03/09 08:55:01;;;;;;;17.40;16.07;;;13.70;99.90;;;;;;4913758;29;20193;-72
2023/03/09 08:57:28;;;;;;;18.97;17.33;;;13.80;99.90;;;;;;4915153;29;20187;-71
2023/03/09 08:59:54;;;;;;;14.60;13.73;;;13.70;99.90;;;;;;4914813;29;20215;-71
2023/03/09 09:02:20;;;;;;;17.23;16.13;;;13.30;99.90;;;;;;4914403;29;20230;-72
2023/03/09 09:04:46;;;;;;;6.87;6.00;;;13.00;99.90;;;;;;4914780;29;20187;-72
2023/03/09 09:07:14;;;;;;;4.60;4.40;;;12.70;99.90;;;;;;4914728;29;20183;-72
2023/03/09 09:09:41;;;;;;;7.27;6.77;;;12.60;99.90;;;;;;4914216;29;20191;-72
2023/03/09 09:12:10;;;;;;;6.97;5.43;;;12.60;99.90;;;;;;4913793;29;20610;-72
2023/03/09 09:14:40;;;;;;;5.10;4.70;;;12.50;99.90;;;;;;4915054;29;20188;-72
2023/03/09 09:17:08;;;;;;;6.87;4.43;;;12.40;99.90;;;;;;4913299;29;20278;-72
2023/03/09 09:19:38;;;;;;;4.97;4.67;;;12.50;99.90;;;;;;4912947;29;20453;-72
2023/03/09 09:22:05;;;;;;;5.30;4.87;;;12.40;99.90;;;;;;4914376;29;20226;-72
2023/03/09 09:24:35;;;;;;;4.80;4.40;;;12.40;99.90;;;;;;4914208;29;20179;-73
2023/03/09 09:27:02;;;;;;;5.40;5.00;;;12.50;99.90;;;;;;4913332;29;20560;-70
2023/03/09 09:29:28;;;;;;;5.63;5.00;;;12.40;99.90;;;;;;4913394;29;20179;-71
2023/03/09 09:31:54;;;;;;;6.70;6.20;;;12.30;99.90;;;;;;4914093;29;20895;-71
2023/03/09 09:34:21;;;;;;;8.73;7.90;;;12.20;99.90;;;;;;4914402;29;20179;-71
2023/03/09 09:36:47;;;;;;;10.63;10.03;;;12.10;99.90;;;;;;4917278;29;20191;-71
2023/03/09 09:39:13;;;;;;;14.43;13.57;;;12.00;99.90;;;;;;4917123;29;20209;-71
2023/03/09 09:41:47;;;;;;;6.20;5.80;;;11.70;99.90;;;;;;4916636;29;20206;-72
2023/03/09 09:44:29;;;;;;;11.50;10.77;;;11.40;99.90;;;;;;4917669;29;20561;-71
2023/03/09 09:46:58;;;;;;;8.77;8.17;;;11.40;99.90;;;;;;4917529;29;20195;-71
2023/03/09 09:49:28;;;;;;;9.50;8.80;;;11.50;99.90;;;;;;4917280;29;20246;-72
2023/03/09 09:52:31;;;;;;;11.10;10.23;;;11.70;99.90;;;;;;4916507;29;20259;-72
2023/03/09 09:55:15;;;;;;;6.93;6.43;;;12.10;99.90;;;;;;4917452;29;20186;-72
2023/03/09 09:57:43;;;;;;;5.73;5.23;;;12.20;99.90;;;;;;4917634;29;20210;-72
2023/03/09 10:00:27;;;;;;;6.30;5.90;;;12.30;99.90;;;;;;4917190;29;20214;-72
2023/03/09 10:03:10;;;;;;;5.57;5.07;;;12.30;99.90;;;;;;4917596;29;20194;-72
2023/03/09 10:06:17;;;;;;;4.60;3.83;;;12.40;99.90;;;;;;4921907;29;20183;-72
2023/03/09 10:08:59;;;;;;;4.43;4.03;;;12.40;99.90;;;;;;4865002;29;20185;-72
2023/03/09 10:11:43;;;;;;;4.00;3.63;;;12.30;99.90;;;;;;4858821;29;20209;-72
2023/03/09 10:14:32;;;;;;;4.67;4.37;;;12.40;99.90;;;;;;4920728;23;20248;-70
2023/03/09 10:17:11;;;;;;;5.43;5.10;;;12.40;99.90;;;;;;4906259;29;20195;-71
2023/03/09 10:19:39;;;;;;;6.17;5.50;;;12.40;99.90;;;;;;4937159;29;20651;-71
2023/03/09 10:22:13;;;;;;;8.23;7.63;;;12.50;99.90;;;;;;4944492;29;20214;-71
2023/03/09 10:24:47;;;;;;;8.50;8.00;;;12.50;99.90;;;;;;4946076;28;20250;-70
2023/03/09 10:27:39;;;;;;;8.30;7.97;;;12.50;99.90;;;;;;4936033;29;20546;-71
2023/03/09 10:30:17;;;;;;;9.73;9.13;;;12.50;99.90;;;;;;4934892;29;20711;-71
2023/03/09 10:32:52;;;;;;;7.50;7.10;;;12.80;99.90;;;;;;4935508;29;20221;-71
2023/03/09 10:35:36;;;;;;;6.33;5.93;;;13.00;99.90;;;;;;4935354;29;20206;-71
2023/03/09 10:38:02;;;;;;;4.20;4.07;;;13.10;99.90;;;;;;4934282;29;20217;-70
2023/03/09 10:40:41;;;;;;;6.03;4.87;;;13.20;99.90;;;;;;4934988;29;20233;-72
2023/03/09 10:43:17;;;;;;;6.80;6.33;;;13.40;99.90;;;;;;4935901;29;20182;-72
2023/03/09 10:45:43;;;;;;;5.57;5.23;;;13.70;99.90;;;;;;4935686;29;20212;-70
2023/03/09 10:48:22;;;;;;;5.73;5.43;;;13.90;99.90;;;;;;4934610;29;20269;-70
2023/03/09 10:50:59;;;;;;;3.63;3.43;;;13.90;99.90;;;;;;4935695;29;20195;-71
2023/03/09 10:53:32;;;;;;;11.60;11.00;;;13.80;99.90;;;;;;4935678;29;20194;-71
2023/03/09 10:56:16;;;;;;;17.53;16.50;;;13.80;99.90;;;;;;4934550;29;20222;-71
2023/03/09 10:58:43;;;;;;;20.23;19.13;;;13.70;99.90;;;;;;4933991;29;20193;-70
2023/03/09 11:01:11;;;;;;;14.03;13.37;;;14.20;99.90;;;;;;4935581;29;20185;-71
2023/03/09 11:03:42;;;;;;;37.10;35.23;;;15.00;99.90;;;;;;4934365;29;20182;-70
2023/03/09 11:06:26;;;;;;;38.83;36.87;;;15.40;99.90;;;;;;4934378;29;20237;-70
2023/03/09 11:09:19;;;;;;;81.97;77.53;;;15.20;99.90;;;;;;4935224;29;20245;-70
2023/03/09 11:11:47;;;;;;;14.80;13.90;;;15.60;99.90;;;;;;4917705;29;20216;-70
2023/03/09 11:14:32;;;;;;;10.20;9.50;;;15.90;99.90;;;;;;4933979;29;20221;-71
2023/03/09 11:17:00;;;;;;;10.10;9.20;;;16.30;99.90;;;;;;4934386;29;20269;-71
2023/03/09 11:19:27;;;;;;;12.43;11.63;;;16.20;99.90;;;;;;4933619;29;20293;-71
2023/03/09 11:21:56;;;;;;;10.47;9.87;;;16.30;99.90;;;;;;4933954;29;20182;-71
2023/03/09 11:24:26;;;;;;;13.67;12.63;;;15.70;99.90;;;;;;4935041;29;20556;-71
2023/03/09 11:27:06;;;;;;;11.60;10.63;;;16.50;99.90;;;;;;4935943;29;20665;-71
2023/03/09 11:29:52;;;;;;;5.77;5.13;;;17.00;99.90;;;;;;4934748;29;20252;-71
2023/03/09 11:32:18;;;;;;;7.60;5.00;;;16.90;99.90;;;;;;4935128;29;20659;-71
2023/03/09 11:34:45;;;;;;;7.30;6.73;;;16.00;99.90;;;;;;4934764;29;20213;-70
2023/03/09 11:37:34;;;;;;;15.83;14.87;;;15.60;99.90;;;;;;4934809;29;20190;-71
2023/03/09 11:40:17;;;;;;;11.57;10.67;;;15.60;99.90;;;;;;4934326;29;20295;-71
2023/03/09 11:43:07;;;;;;;15.67;14.80;;;15.90;99.90;;;;;;4934881;29;20178;-71
2023/03/09 11:45:35;;;;;;;13.50;12.70;;;15.50;99.90;;;;;;4934723;29;20262;-71
2023/03/09 11:48:18;;;;;;;17.90;16.97;;;14.80;99.90;;;;;;4934682;29;20186;-71
2023/03/09 11:51:10;;;;;;;13.63;12.83;;;14.40;99.90;;;;;;4934481;29;20213;-71
2023/03/09 11:53:46;;;;;;;17.70;16.13;;;14.70;99.90;;;;;;4926236;29;20206;-71
2023/03/09 11:56:29;;;;;;;16.77;15.67;;;14.80;99.90;;;;;;4933619;29;20190;-71
2023/03/09 11:59:02;;;;;;;17.33;16.13;;;14.50;99.90;;;;;;4932464;29;20216;-71
2023/03/09 12:01:34;;;;;;;16.93;15.97;;;14.70;99.90;;;;;;4939257;29;20210;-71
2023/03/09 12:04:06;;;;;;;15.53;14.33;;;14.50;99.90;;;;;;4937667;29;20210;-71
2023/03/09 12:06:43;;;;;;;12.53;11.93;;;14.60;99.90;;;;;;4935549;29;20193;-71
2023/03/09 12:09:44;;;;;;;15.53;14.63;;;14.90;99.90;;;;;;4934330;29;20254;-71
2023/03/09 12:12:33;;;;;;;16.43;15.53;;;15.10;99.90;;;;;;4903097;29;20277;-71
2023/03/09 12:15:22;;;;;;;16.67;15.47;;;15.10;99.90;;;;;;4934078;29;20270;-71
2023/03/09 12:17:56;;;;;;;9.70;9.10;;;15.60;99.90;;;;;;4933191;29;20670;-70
2023/03/09 12:20:48;;;;;;;13.47;12.70;;;15.40;99.90;;;;;;4933840;29;20214;-71
2023/03/09 12:23:45;;;;;;;16.57;15.60;;;14.80;99.90;;;;;;4933159;29;20265;-72
2023/03/09 12:26:28;;;;;;;5.70;5.33;;;15.80;99.90;;;;;;4933447;29;20214;-70
2023/03/09 12:29:01;;;;;;;6.97;5.30;;;15.90;99.90;;;;;;4933954;29;20218;-71
2023/03/09 12:31:31;;;;;;;10.63;9.83;;;17.30;99.90;;;;;;4932919;29;20577;-70
2023/03/09 12:33:59;;;;;;;8.00;7.60;;;17.60;99.90;;;;;;4932875;29;20261;-72
2023/03/09 12:36:31;;;;;;;7.60;7.03;;;17.70;99.90;;;;;;4934124;29;20186;-73
2023/03/09 12:39:22;;;;;;;9.17;8.60;;;17.90;99.90;;;;;;4933676;29;20249;-72
2023/03/09 12:42:22;;;;;;;7.30;6.73;;;17.50;99.90;;;;;;4934022;29;20186;-72
2023/03/09 12:44:51;;;;;;;12.60;11.87;;;18.00;99.90;;;;;;4932476;29;20671;-72
2023/03/09 12:47:19;;;;;;;14.43;13.27;;;19.00;99.90;;;;;;4934684;29;20635;-72
2023/03/09 12:49:48;;;;;;;11.40;10.80;;;19.20;99.90;;;;;;4933788;29;20186;-72
2023/03/09 12:52:40;;;;;;;10.60;9.73;;;18.60;99.90;;;;;;4934054;29;20186;-72
2023/03/09 12:55:20;;;;;;;7.27;6.77;;;19.20;99.90;;;;;;4932836;29;20206;-72
2023/03/09 12:57:47;;;;;;;4.83;4.43;;;18.90;99.90;;;;;;4934404;29;20653;-72
2023/03/09 13:00:32;;;;;;;3.73;3.50;;;19.20;99.90;;;;;;4933831;29;20261;-72
2023/03/09 13:03:13;;;;;;;4.23;3.67;;;19.60;99.90;;;;;;4932739;29;20193;-71
2023/03/09 13:05:45;;;;;;;6.00;4.83;;;19.90;99.70;;;;;;4933632;29;20217;-71
2023/03/09 13:08:33;;;;;;;4.37;3.97;;;18.70;99.40;;;;;;4932734;29;20193;-71
2023/03/09 13:11:21;;;;;;;6.33;5.90;;;17.60;99.90;;;;;;4934462;29;20182;-71
2023/03/09 13:13:47;;;;;;;23.13;21.53;;;16.50;99.90;;;;;;4937366;29;20190;-71
2023/03/09 13:16:31;;;;;;;22.27;20.90;;;16.00;99.90;;;;;;4936257;29;20182;-71
2023/03/09 13:19:26;;;;;;;12.00;11.20;;;15.60;99.90;;;;;;4937019;29;20220;-70
2023/03/09 13:21:57;;;;;;;10.80;10.10;;;15.40;99.90;;;;;;4923693;29;20650;-71
2023/03/09 13:24:35;;;;;;;8.90;8.37;;;15.10;99.90;;;;;;4936032;29;20290;-71
2023/03/09 13:27:04;;;;;;;12.80;12.03;;;14.70;99.90;;;;;;4936176;29;20186;-70
2023/03/09 13:29:30;;;;;;;11.47;10.83;;;14.60;99.90;;;;;;4935717;29;20186;-70
2023/03/09 13:31:57;;;;;;;10.50;9.80;;;14.80;99.90;;;;;;4937291;29;20186;-71
2023/03/09 13:34:31;;;;;;;10.63;9.87;;;14.90;99.90;;;;;;4937045;29;20268;-71
2023/03/09 13:37:04;;;;;;;9.20;8.40;;;14.80;99.90;;;;;;4937078;29;20194;-71
2023/03/09 13:39:31;;;;;;;8.07;7.37;;;14.70;99.90;;;;;;4936663;29;20686;-71
2023/03/09 13:42:05;;;;;;;8.40;7.63;;;14.50;99.90;;;;;;4937139;29;20182;-71
2023/03/09 13:44:31;;;;;;;7.83;7.33;;;14.50;99.90;;;;;;4936957;29;20670;-71
2023/03/09 13:46:58;;;;;;;7.63;7.07;;;14.40;99.90;;;;;;4937903;29;20187;-71
2023/03/09 13:49:36;;;;;;;10.00;9.30;;;14.30;99.90;;;;;;4936625;29;20302;-71
2023/03/09 13:52:05;;;;;;;13.10;12.30;;;14.30;99.90;;;;;;4936846;29;20193;-71
2023/03/09 13:54:33;;;;;;;21.07;19.67;;;14.30;99.90;;;;;;4937238;29;20206;-71
2023/03/09 13:57:13;;;;;;;36.10;34.17;;;14.20;99.90;;;;;;4936878;29;20186;-71
2023/03/09 14:00:15;;;;;;;39.97;37.80;;;14.10;99.90;;;;;;4935127;29;20697;-70
2023/03/09 14:02:41;;;;;;;49.97;47.33;;;13.90;99.90;;;;;;4931703;29;20741;-70
2023/03/09 14:05:19;;;;;;;53.20;50.47;;;13.90;99.90;;;;;;4935529;29;20285;-71
2023/03/09 14:07:58;;;;;;;53.67;50.47;;;13.90;99.90;;;;;;4936950;29;20189;-71
2023/03/09 14:10:35;;;;;;;50.10;47.30;;;13.90;99.90;;;;;;4936895;29;20566;-71
2023/03/09 14:13:24;;;;;;;46.47;44.13;;;13.90;99.90;;;;;;4935252;29;20222;-71
2023/03/09 14:16:05;;;;;;;41.60;39.53;;;13.90;99.90;;;;;;4935789;29;20765;-71
2023/03/09 14:18:46;;;;;;;24.50;23.10;;;13.90;99.90;;;;;;4935887;29;20190;-71
2023/03/09 14:21:26;;;;;;;35.80;33.90;;;13.60;99.90;;;;;;4935615;29;20222;-71
2023/03/09 14:23:53;;;;;;;4.33;3.93;;;12.90;99.90;;;;;;4936072;29;20234;-71
2023/03/09 14:26:38;;;;;;;8.30;4.20;;;12.40;99.90;;;;;;4936146;29;20607;-71
2023/03/09 14:29:41;;;;;;;24.67;22.87;;;11.90;99.90;;;;;;4934437;29;20574;-72
2023/03/09 14:32:17;;;;;;;31.87;29.80;;;11.80;99.90;;;;;;4895577;29;20196;-71
2023/03/09 14:34:44;;;;;;;26.60;24.83;;;12.00;99.90;;;;;;4926572;29;20311;-72
2023/03/09 14:37:21;;;;;;;26.73;24.80;;;12.10;99.90;;;;;;4935014;29;20183;-71
2023/03/09 14:39:48;;;;;;;27.23;25.23;;;12.40;99.90;;;;;;4935371;29;20708;-71
2023/03/09 14:42:25;;;;;;;8.00;5.30;;;12.70;99.90;;;;;;4934580;29;20183;-71
2023/03/09 14:45:10;;;;;;;13.10;12.07;;;13.10;99.90;;;;;;4935635;29;20622;-70
2023/03/09 14:47:37;;;;;;;4.63;4.23;;;13.50;99.90;;;;;;4935782;29;20194;-70
2023/03/09 14:50:05;;;;;;;11.97;10.97;;;13.70;99.90;;;;;;4934117;29;20210;-71
2023/03/09 14:52:31;;;;;;;8.67;8.13;;;14.00;99.90;;;;;;4934562;29;20299;-71
2023/03/09 14:55:02;;;;;;;8.27;7.67;;;14.20;99.90;;;;;;4935756;29;20616;-72
2023/03/09 14:57:28;;;;;;;38.67;36.30;;;14.80;99.90;;;;;;4935632;29;20276;-71
2023/03/09 14:59:54;;;;;;;49.57;47.00;;;14.90;99.90;;;;;;4935107;29;20305;-71
2023/03/09 15:02:20;;;;;;;51.60;48.60;;;14.90;99.90;;;;;;4934381;29;20187;-71
2023/03/09 15:04:47;;;;;;;21.87;20.27;;;14.70;99.90;;;;;;4934294;29;20678;-71
2023/03/09 15:07:17;;;;;;;20.30;19.17;;;14.50;99.90;;;;;;4938760;29;20206;-72
2023/03/09 15:09:46;;;;;;;24.37;22.83;;;14.30;99.90;;;;;;4935978;29;20190;-72
2023/03/09 15:12:17;;;;;;;40.90;38.57;;;14.00;99.90;;;;;;4934390;29;20201;-71
2023/03/09 15:14:45;;;;;;;29.77;28.03;;;13.90;99.90;;;;;;4933976;29;20698;-71
2023/03/09 15:17:21;;;;;;;29.30;27.63;;;14.00;99.90;;;;;;4934095;29;20198;-71
2023/03/09 15:19:48;;;;;;;19.67;18.37;;;14.10;99.90;;;;;;4934749;29;20201;-72
2023/03/09 15:22:16;;;;;;;17.33;16.30;;;14.20;99.90;;;;;;4934158;29;20202;-71
2023/03/09 15:24:42;;;;;;;19.37;17.63;;;14.40;99.90;;;;;;4933915;29;20206;-71
2023/03/09 15:27:09;;;;;;;15.53;14.47;;;14.60;99.90;;;;;;4935117;29;20194;-71
2023/03/09 15:29:37;;;;;;;16.37;15.27;;;14.80;99.90;;;;;;4935263;29;20273;-71
2023/03/09 15:32:06;;;;;;;20.73;18.93;;;14.80;99.90;;;;;;4935696;29;20698;-71
2023/03/09 15:34:34;;;;;;;20.80;19.40;;;14.70;99.90;;;;;;4935266;29;20292;-71
2023/03/09 15:37:00;;;;;;;18.80;17.57;;;14.60;99.90;;;;;;4935233;29;20183;-71
2023/03/09 15:39:26;;;;;;;21.10;19.90;;;14.60;99.90;;;;;;4936584;29;20214;-72
2023/03/09 15:41:52;;;;;;;22.40;21.03;;;14.80;99.90;;;;;;4936063;29;20186;-71
2023/03/09 15:44:17;;;;;;;27.67;26.03;;;15.00;99.90;;;;;;4933560;29;20209;-71
2023/03/09 15:46:43;;;;;;;25.23;23.73;;;14.80;99.90;;;;;;4933580;29;20174;-71
2023/03/09 15:49:09;;;;;;;28.60;26.90;;;14.80;99.90;;;;;;4934365;29;20274;-71
2023/03/09 15:51:35;;;;;;;28.00;26.53;;;15.10;99.90;;;;;;4933401;29;20182;-71
2023/03/09 15:54:03;;;;;;;28.30;26.60;;;15.20;99.90;;;;;;4933556;29;20237;-71
2023/03/09 15:56:29;;;;;;;31.93;30.13;;;14.90;99.90;;;;;;4933476;29;20277;-72
2023/03/09 15:58:54;;;;;;;23.23;21.80;;;14.40;99.90;;;;;;4934068;29;20743;-71
2023/03/09 16:01:23;;;;;;;26.03;24.43;;;14.00;99.90;;;;;;4934360;29;20182;-72
2023/03/09 16:03:50;;;;;;;16.60;15.60;;;13.80;99.90;;;;;;4933409;29;20258;-71
2023/03/09 16:06:17;;;;;;;17.27;16.13;;;13.80;99.90;;;;;;4934409;29;20174;-71
2023/03/09 16:08:45;;;;;;;16.33;15.20;;;13.70;99.90;;;;;;4934197;29;20221;-69
2023/03/09 16:11:10;;;;;;;12.93;11.93;;;13.60;99.90;;;;;;4933105;29;20193;-71
2023/03/09 16:13:36;;;;;;;15.23;14.13;;;13.60;99.90;;;;;;4934681;29;20186;-71
2023/03/09 16:16:02;;;;;;;15.77;14.57;;;13.70;99.90;;;;;;4955572;23;20599;-72
2023/03/09 16:18:28;;;;;;;13.90;12.90;;;13.90;99.90;;;;;;4934081;29;20174;-72
2023/03/09 16:20:54;;;;;;;13.70;12.83;;;14.10;99.90;;;;;;4934202;29;20218;-72
2023/03/09 16:23:20;;;;;;;14.33;12.93;;;14.50;99.90;;;;;;4934602;29;20599;-72
2023/03/09 16:25:50;;;;;;;18.97;17.77;;;14.80;99.90;;;;;;4918073;29;20209;-72
2023/03/09 16:28:16;;;;;;;29.30;27.37;;;15.20;99.90;;;;;;4914004;29;20265;-72
2023/03/09 16:30:42;;;;;;;29.47;27.80;;;15.30;99.90;;;;;;4913668;29;20627;-72
2023/03/09 16:33:08;;;;;;;31.80;30.03;;;15.60;99.90;;;;;;4915309;29;20187;-72
2023/03/09 16:35:34;;;;;;;25.73;24.13;;;15.40;99.90;;;;;;4913839;29;20567;-72
2023/03/09 16:38:00;;;;;;;33.33;31.13;;;15.00;99.90;;;;;;4918618;29;20194;-72
2023/03/09 16:40:26;;;;;;;32.63;30.37;;;14.80;99.90;;;;;;4914618;29;20230;-72
2023/03/09 16:42:52;;;;;;;34.90;32.50;;;14.40;99.90;;;;;;4915063;29;20175;-72
2023/03/09 16:45:18;;;;;;;29.13;26.87;;;14.00;99.90;;;;;;4916257;29;20294;-72
2023/03/09 16:47:45;;;;;;;21.77;20.23;;;13.70;99.90;;;;;;4919185;29;20230;-72
2023/03/09 16:50:16;;;;;;;18.30;16.73;;;13.50;99.90;;;;;;4918673;29;20190;-72
2023/03/09 16:52:43;;;;;;;14.00;12.83;;;13.40;99.90;;;;;;4919006;29;20175;-72
2023/03/09 16:55:12;;;;;;;17.93;16.73;;;13.20;99.90;;;;;;4918770;29;20199;-72
2023/03/09 16:57:38;;;;;;;19.57;18.23;;;13.10;99.90;;;;;;4918959;29;20191;-72